sensor_id;sensor_type;location;lat;lon;timestamp;pressure;altitude;pressure_sealevel;temperature;humidity
30856;BME280;17570;0.000;0.000;2023-04-01T00:00:57;96058.77;;;17.84;35.82
30856;BME280;17570;0.000;0.000;2023-04-01T00:03:25;96051.91;;;17.83;35.95
30856;BME280;17570;0.000;0.000;2023-04-01T00:05:53;96060.15;;;17.80;36.11
30856;BME280;17570;0.000;0.000;2023-04-01T00:08:22;96064.02;;;17.84;36.05
30856;BME280;17570;0.000;0.000;2023-04-01T00:10:50;96063.58;;;17.80;35.87
30856;BME280;17570;0.000;0.000;2023-04-01T00:13:17;96061.97;;;17.79;36.14
30856;BME280;17570;0.000;0.000;2023-04-01T00:15:45;96065.80;;;17.77;36.16
30856;BME280;17570;0.000;0.000;2023-04-01T00:18:13;96047.79;;;17.74;36.11
30856;BME280;17570;0.000;0.000;2023-04-01T00:20:47;96040.72;;;17.74;36.37
30856;BME280;17570;0.000;0.000;2023-04-01T00:23:15;96031.57;;;17.70;36.20
30856;BME280;17570;0.000;0.000;2023-04-01T00:25:43;96030.32;;;17.66;36.48
30856;BME280;17570;0.000;0.000;2023-04-01T00:28:12;96028.14;;;17.70;36.50
30856;BME280;17570;0.000;0.000;2023-04-01T00:30:39;96020.02;;;17.65;36.36
30856;BME280;17570;0.000;0.000;2023-04-01T00:33:07;96013.77;;;17.66;36.39
30856;BME280;17570;0.000;0.000;2023-04-01T00:35:35;96014.58;;;17.66;36.61
30856;BME280;17570;0.000;0.000;2023-04-01T00:38:03;96010.13;;;17.67;36.86
30856;BME280;17570;0.000;0.000;2023-04-01T00:40:32;96010.58;;;17.70;36.64
30856;BME280;17570;0.000;0.000;2023-04-01T00:43:00;96001.28;;;17.68;36.55
30856;BME280;17570;0.000;0.000;2023-04-01T00:45:38;95990.55;;;17.63;36.71
30856;BME280;17570;0.000;0.000;2023-04-01T00:48:26;95982.03;;;17.60;36.80
30856;BME280;17570;0.000;0.000;2023-04-01T00:50:39;95986.84;;;17.57;36.83
30856;BME280;17570;0.000;0.000;2023-04-01T00:53:07;95979.17;;;17.55;36.73
30856;BME280;17570;0.000;0.000;2023-04-01T00:55:36;95987.04;;;17.55;37.05
30856;BME280;17570;0.000;0.000;2023-04-01T00:58:05;95987.48;;;17.59;36.96
30856;BME280;17570;0.000;0.000;2023-04-01T01:00:33;95980.86;;;17.63;37.11
30856;BME280;17570;0.000;0.000;2023-04-01T01:03:01;95980.29;;;17.68;37.18
30856;BME280;17570;0.000;0.000;2023-04-01T01:05:32;95968.95;;;17.67;36.95
30856;BME280;17570;0.000;0.000;2023-04-01T01:08:04;95981.27;;;17.67;37.03
30856;BME280;17570;0.000;0.000;2023-04-01T01:10:32;95980.45;;;17.66;36.90
30856;BME280;17570;0.000;0.000;2023-04-01T01:13:03;95982.71;;;17.69;37.07
30856;BME280;17570;0.000;0.000;2023-04-01T01:18:19;95975.61;;;17.63;37.11
30856;BME280;17570;0.000;0.000;2023-04-01T01:20:57;95988.33;;;17.66;36.98
30856;BME280;17570;0.000;0.000;2023-04-01T01:23:36;95979.41;;;17.60;37.15
30856;BME280;17570;0.000;0.000;2023-04-01T01:28:37;95984.42;;;17.55;37.30
30856;BME280;17570;0.000;0.000;2023-04-01T01:36:22;95975.09;;;17.53;37.23
30856;BME280;17570;0.000;0.000;2023-04-01T01:38:51;95977.72;;;17.53;37.28
30856;BME280;17570;0.000;0.000;2023-04-01T01:41:19;95978.36;;;17.55;37.22
30856;BME280;17570;0.000;0.000;2023-04-01T01:43:48;95971.54;;;17.60;37.22
30856;BME280;17570;0.000;0.000;2023-04-01T01:46:19;95965.05;;;17.56;37.04
30856;BME280;17570;0.000;0.000;2023-04-01T01:48:47;95958.17;;;17.55;37.11
30856;BME280;17570;0.000;0.000;2023-04-01T01:51:15;95945.67;;;17.57;37.29
30856;BME280;17570;0.000;0.000;2023-04-01T01:53:43;95940.86;;;17.61;37.28
30856;BME280;17570;0.000;0.000;2023-04-01T01:56:11;95934.56;;;17.55;37.07
30856;BME280;17570;0.000;0.000;2023-04-01T01:58:43;95932.55;;;17.57;37.26
30856;BME280;17570;0.000;0.000;2023-04-01T02:01:14;95926.89;;;17.54;37.16
30856;BME280;17570;0.000;0.000;2023-04-01T02:03:43;95929.69;;;17.52;37.11
30856;BME280;17570;0.000;0.000;2023-04-01T02:06:13;95923.63;;;17.52;37.26
30856;BME280;17570;0.000;0.000;2023-04-01T02:08:45;95927.63;;;17.48;37.35
30856;BME280;17570;0.000;0.000;2023-04-01T02:11:14;95930.09;;;17.49;37.39
30856;BME280;17570;0.000;0.000;2023-04-01T02:13:54;95930.70;;;17.51;37.43
30856;BME280;17570;0.000;0.000;2023-04-01T02:16:14;95929.69;;;17.52;37.38
30856;BME280;17570;0.000;0.000;2023-04-01T02:18:42;95924.44;;;17.52;37.62
30856;BME280;17570;0.000;0.000;2023-04-01T02:21:11;95924.84;;;17.49;37.40
30856;BME280;17570;0.000;0.000;2023-04-01T02:23:39;95931.34;;;17.53;37.36
30856;BME280;17570;0.000;0.000;2023-04-01T02:26:07;95924.44;;;17.52;37.58
30856;BME280;17570;0.000;0.000;2023-04-01T02:28:36;95920.20;;;17.51;37.61
30856;BME280;17570;0.000;0.000;2023-04-01T02:31:06;95924.44;;;17.52;37.62
30856;BME280;17570;0.000;0.000;2023-04-01T02:33:34;95914.14;;;17.51;37.52
30856;BME280;17570;0.000;0.000;2023-04-01T02:36:02;95920.57;;;17.48;37.52
30856;BME280;17570;0.000;0.000;2023-04-01T02:38:31;95909.91;;;17.50;37.62
30856;BME280;17570;0.000;0.000;2023-04-01T02:40:59;95914.34;;;17.49;37.56
30856;BME280;17570;0.000;0.000;2023-04-01T02:43:27;95908.90;;;17.51;37.59
30856;BME280;17570;0.000;0.000;2023-04-01T02:45:55;95904.46;;;17.51;37.53
30856;BME280;17570;0.000;0.000;2023-04-01T02:48:23;95895.20;;;17.55;37.76
30856;BME280;17570;0.000;0.000;2023-04-01T02:50:50;95893.77;;;17.53;37.69
30856;BME280;17570;0.000;0.000;2023-04-01T02:53:18;95896.22;;;17.54;37.73
30856;BME280;17570;0.000;0.000;2023-04-01T02:55:45;95893.97;;;17.51;37.89
30856;BME280;17570;0.000;0.000;2023-04-01T02:58:15;95882.45;;;17.52;37.83
30856;BME280;17570;0.000;0.000;2023-04-01T03:00:42;95880.91;;;17.58;37.85
30856;BME280;17570;0.000;0.000;2023-04-01T03:03:12;95885.72;;;17.54;37.83
30856;BME280;17570;0.000;0.000;2023-04-01T03:05:39;95882.09;;;17.55;37.90
30856;BME280;17570;0.000;0.000;2023-04-01T03:08:07;95884.14;;;17.60;37.88
30856;BME280;17570;0.000;0.000;2023-04-01T03:10:34;95877.50;;;17.64;37.72
30856;BME280;17570;0.000;0.000;2023-04-01T03:13:03;95871.04;;;17.67;37.68
30856;BME280;17570;0.000;0.000;2023-04-01T03:15:30;95873.49;;;17.68;37.54
30856;BME280;17570;0.000;0.000;2023-04-01T03:17:58;95868.24;;;17.68;37.60
30856;BME280;17570;0.000;0.000;2023-04-01T03:20:25;95860.17;;;17.70;37.71
30856;BME280;17570;0.000;0.000;2023-04-01T03:22:53;95861.55;;;17.66;37.94
30856;BME280;17570;0.000;0.000;2023-04-01T03:25:20;95864.41;;;17.71;37.66
30856;BME280;17570;0.000;0.000;2023-04-01T03:27:48;95862.80;;;17.70;37.50
30856;BME280;17570;0.000;0.000;2023-04-01T03:30:15;95863.37;;;17.65;37.69
30856;BME280;17570;0.000;0.000;2023-04-01T03:32:45;95856.71;;;17.63;38.03
30856;BME280;17570;0.000;0.000;2023-04-01T03:35:12;95859.34;;;17.63;37.90
30856;BME280;17570;0.000;0.000;2023-04-01T03:37:40;95864.98;;;17.66;37.76
30856;BME280;17570;0.000;0.000;2023-04-01T03:40:08;95861.18;;;17.69;38.09
30856;BME280;17570;0.000;0.000;2023-04-01T03:42:36;95865.80;;;17.67;37.77
30856;BME280;17570;0.000;0.000;2023-04-01T03:45:04;95872.91;;;17.73;37.68
30856;BME280;17570;0.000;0.000;2023-04-01T03:47:32;95865.05;;;17.73;37.55
30856;BME280;17570;0.000;0.000;2023-04-01T03:49:59;95865.67;;;17.75;37.44
30856;BME280;17570;0.000;0.000;2023-04-01T03:52:27;95863.25;;;17.73;37.42
30856;BME280;17570;0.000;0.000;2023-04-01T03:54:54;95871.73;;;17.75;37.35
30856;BME280;17570;0.000;0.000;2023-04-01T03:57:22;95870.29;;;17.73;37.56
30856;BME280;17570;0.000;0.000;2023-04-01T03:59:50;95872.16;;;17.79;37.23
30856;BME280;17570;0.000;0.000;2023-04-01T04:02:18;95868.52;;;17.80;37.30
30856;BME280;17570;0.000;0.000;2023-04-01T04:04:46;95867.72;;;17.79;37.24
30856;BME280;17570;0.000;0.000;2023-04-01T04:07:13;95864.89;;;17.81;37.32
30856;BME280;17570;0.000;0.000;2023-04-01T04:09:55;95862.67;;;17.78;37.46
30856;BME280;17570;0.000;0.000;2023-04-01T04:12:22;95868.84;;;17.70;37.82
30856;BME280;17570;0.000;0.000;2023-04-01T04:14:50;95863.86;;;17.75;37.83
30856;BME280;17570;0.000;0.000;2023-04-01T04:17:18;95868.35;;;17.81;37.88
30856;BME280;17570;0.000;0.000;2023-04-01T04:19:46;95872.77;;;17.81;37.82
30856;BME280;17570;0.000;0.000;2023-04-01T04:22:13;95878.22;;;17.79;38.13
30856;BME280;17570;0.000;0.000;2023-04-01T04:24:41;95868.94;;;17.77;38.03
30856;BME280;17570;0.000;0.000;2023-04-01T04:27:10;95870.14;;;17.81;37.88
30856;BME280;17570;0.000;0.000;2023-04-01T04:29:39;95860.27;;;17.83;37.95
30856;BME280;17570;0.000;0.000;2023-04-01T04:32:07;95864.89;;;17.81;38.02
30856;BME280;17570;0.000;0.000;2023-04-01T04:34:35;95858.03;;;17.80;37.95
30856;BME280;17570;0.000;0.000;2023-04-01T04:37:02;95862.90;;;17.83;38.03
30856;BME280;17570;0.000;0.000;2023-04-01T04:39:32;95856.03;;;17.82;37.79
30856;BME280;17570;0.000;0.000;2023-04-01T04:41:59;95856.41;;;17.79;38.05
30856;BME280;17570;0.000;0.000;2023-04-01T04:44:27;95864.08;;;17.80;38.09
30856;BME280;17570;0.000;0.000;2023-04-01T04:46:55;95860.73;;;18.00;38.99
30856;BME280;17570;0.000;0.000;2023-04-01T04:49:22;95861.21;;;18.10;40.14
30856;BME280;17570;0.000;0.000;2023-04-01T04:51:50;95858.80;;;18.15;40.18
30856;BME280;17570;0.000;0.000;2023-04-01T04:54:20;95855.37;;;18.15;39.66
30856;BME280;17570;0.000;0.000;2023-04-01T04:56:55;95848.48;;;18.14;39.53
30856;BME280;17570;0.000;0.000;2023-04-01T04:59:24;95859.39;;;18.10;39.45
30856;BME280;17570;0.000;0.000;2023-04-01T05:01:54;95861.81;;;18.12;39.32
30856;BME280;17570;0.000;0.000;2023-04-01T05:04:21;95853.13;;;18.12;39.41
30856;BME280;17570;0.000;0.000;2023-04-01T05:06:49;95862.40;;;18.07;39.65
30856;BME280;17570;0.000;0.000;2023-04-01T05:09:18;95854.52;;;18.07;39.66
30856;BME280;17570;0.000;0.000;2023-04-01T05:11:45;95853.71;;;18.07;39.67
30856;BME280;17570;0.000;0.000;2023-04-01T05:14:14;95855.74;;;18.05;39.73
30856;BME280;17570;0.000;0.000;2023-04-01T05:16:43;95849.48;;;18.13;39.57
30856;BME280;17570;0.000;0.000;2023-04-01T05:19:11;95842.23;;;18.15;39.61
30856;BME280;17570;0.000;0.000;2023-04-01T05:21:38;95841.23;;;18.16;39.42
30856;BME280;17570;0.000;0.000;2023-04-01T05:24:09;95849.70;;;18.18;39.32
30856;BME280;17570;0.000;0.000;2023-04-01T05:26:37;95840.84;;;18.19;39.62
30856;BME280;17570;0.000;0.000;2023-04-01T05:29:05;95838.81;;;18.21;39.67
30856;BME280;17570;0.000;0.000;2023-04-01T05:31:33;95842.67;;;18.25;39.29
30856;BME280;17570;0.000;0.000;2023-04-01T05:34:01;95839.25;;;18.31;39.09
30856;BME280;17570;0.000;0.000;2023-04-01T05:36:28;95839.25;;;18.31;39.24
30856;BME280;17570;0.000;0.000;2023-04-01T05:38:56;95839.87;;;18.33;39.13
30856;BME280;17570;0.000;0.000;2023-04-01T05:41:25;95837.84;;;18.35;39.30
30856;BME280;17570;0.000;0.000;2023-04-01T05:43:53;95822.89;;;18.35;39.62
30856;BME280;17570;0.000;0.000;2023-04-01T05:46:42;95818.05;;;18.39;39.62
30856;BME280;17570;0.000;0.000;2023-04-01T05:49:23;95807.30;;;18.27;39.95
30856;BME280;17570;0.000;0.000;2023-04-01T05:51:50;95800.44;;;18.26;40.33
30856;BME280;17570;0.000;0.000;2023-04-01T05:54:19;95800.05;;;18.36;40.36
30856;BME280;17570;0.000;0.000;2023-04-01T05:56:49;95787.13;;;18.41;40.68
30856;BME280;17570;0.000;0.000;2023-04-01T05:59:17;95789.96;;;18.40;40.47
30856;BME280;17570;0.000;0.000;2023-04-01T06:01:44;95791.78;;;18.46;40.73
30856;BME280;17570;0.000;0.000;2023-04-01T06:04:13;95793.21;;;18.48;40.70
30856;BME280;17570;0.000;0.000;2023-04-01T06:06:42;95785.12;;;18.50;40.64
30856;BME280;17570;0.000;0.000;2023-04-01T06:28:13;95741.46;;;18.49;41.33
30856;BME280;17570;0.000;0.000;2023-04-01T06:30:37;95743.09;;;18.56;41.09
30856;BME280;17570;0.000;0.000;2023-04-01T06:35:36;95742.30;;;18.69;40.85
30856;BME280;17570;0.000;0.000;2023-04-01T06:43:27;95744.12;;;18.69;40.93
30856;BME280;17570;0.000;0.000;2023-04-01T06:49:17;95746.95;;;18.74;41.62
30856;BME280;17570;0.000;0.000;2023-04-01T06:54:49;95731.78;;;18.82;41.32
30856;BME280;17570;0.000;0.000;2023-04-01T06:57:38;95721.06;;;18.77;40.89
30856;BME280;17570;0.000;0.000;2023-04-01T07:00:05;95722.08;;;18.90;40.58
30856;BME280;17570;0.000;0.000;2023-04-01T07:02:35;95716.37;;;19.06;39.42
30856;BME280;17570;0.000;0.000;2023-04-01T07:05:02;95716.56;;;19.18;39.30
30856;BME280;17570;0.000;0.000;2023-04-01T07:07:53;95705.20;;;19.24;38.97
30856;BME280;17570;0.000;0.000;2023-04-01T07:10:20;95706.00;;;19.31;38.88
30856;BME280;17570;0.000;0.000;2023-04-01T07:13:09;95697.49;;;19.29;39.24
30856;BME280;17570;0.000;0.000;2023-04-01T07:15:58;95697.09;;;19.25;39.30
30856;BME280;17570;0.000;0.000;2023-04-01T07:18:38;95700.52;;;19.32;39.33
30856;BME280;17570;0.000;0.000;2023-04-01T07:21:02;95698.66;;;19.46;39.01
30856;BME280;17570;0.000;0.000;2023-04-01T07:23:36;95695.58;;;19.56;38.98
30856;BME280;17570;0.000;0.000;2023-04-01T07:26:21;95701.84;;;19.68;39.01
30856;BME280;17570;0.000;0.000;2023-04-01T07:29:09;95698.59;;;19.66;39.42
30856;BME280;17570;0.000;0.000;2023-04-01T07:34:26;95710.84;;;19.85;39.04
30856;BME280;17570;0.000;0.000;2023-04-01T07:37:02;95709.75;;;20.00;39.12
30856;BME280;17570;0.000;0.000;2023-04-01T07:47:34;95696.70;;;20.43;37.74
30856;BME280;17570;0.000;0.000;2023-04-01T07:52:33;95683.77;;;20.67;36.85
30856;BME280;17570;0.000;0.000;2023-04-01T07:55:06;95688.92;;;20.80;36.47
30856;BME280;17570;0.000;0.000;2023-04-01T07:57:43;95677.14;;;21.01;36.65
30856;BME280;17570;0.000;0.000;2023-04-01T08:07:58;95649.08;;;21.43;34.99
30856;BME280;17570;0.000;0.000;2023-04-01T08:10:46;95658.40;;;21.46;34.41
30856;BME280;17570;0.000;0.000;2023-04-01T08:13:53;95675.24;;;21.45;35.19
30856;BME280;17570;0.000;0.000;2023-04-01T08:16:38;95655.96;;;21.44;34.48
30856;BME280;17570;0.000;0.000;2023-04-01T08:19:22;95649.97;;;21.37;33.01
30856;BME280;17570;0.000;0.000;2023-04-01T08:21:54;95646.00;;;21.46;34.53
30856;BME280;17570;0.000;0.000;2023-04-01T08:24:25;95631.33;;;21.50;33.43
30856;BME280;17570;0.000;0.000;2023-04-01T08:26:53;95636.88;;;21.60;34.40
30856;BME280;17570;0.000;0.000;2023-04-01T08:29:21;95631.63;;;21.72;34.62
30856;BME280;17570;0.000;0.000;2023-04-01T08:32:01;95612.25;;;21.78;33.02
30856;BME280;17570;0.000;0.000;2023-04-01T08:34:25;95617.79;;;21.88;33.21
30856;BME280;17570;0.000;0.000;2023-04-01T08:37:03;95617.91;;;21.94;32.38
30856;BME280;17570;0.000;0.000;2023-04-01T08:39:49;95607.18;;;22.19;33.29
30856;BME280;17570;0.000;0.000;2023-04-01T08:50:23;95599.84;;;22.56;32.38
30856;BME280;17570;0.000;0.000;2023-04-01T08:58:31;95615.23;;;22.71;28.16
30856;BME280;17570;0.000;0.000;2023-04-01T09:04:05;95613.53;;;22.76;27.59
30856;BME280;17570;0.000;0.000;2023-04-01T09:25:22;95604.44;;;22.96;26.52
30856;BME280;17570;0.000;0.000;2023-04-01T09:27:57;95601.86;;;23.12;26.52
30856;BME280;17570;0.000;0.000;2023-04-01T09:30:45;95595.64;;;23.19;25.73
30856;BME280;17570;0.000;0.000;2023-04-01T09:38:47;95582.72;;;23.22;25.93
30856;BME280;17570;0.000;0.000;2023-04-01T09:44:12;95566.47;;;23.30;25.22
30856;BME280;17570;0.000;0.000;2023-04-01T09:49:33;95555.75;;;23.37;25.15
30856;BME280;17570;0.000;0.000;2023-04-01T09:54:45;95536.09;;;23.50;24.97
30856;BME280;17570;0.000;0.000;2023-04-01T10:13:49;95530.95;;;24.05;24.04
30856;BME280;17570;0.000;0.000;2023-04-01T10:16:19;95517.86;;;24.15;23.66
30856;BME280;17570;0.000;0.000;2023-04-01T10:23:49;95516.71;;;24.45;23.52
30856;BME280;17570;0.000;0.000;2023-04-01T10:36:58;95497.34;;;24.66;22.79
30856;BME280;17570;0.000;0.000;2023-04-01T10:50:13;95483.28;;;25.10;23.41
30856;BME280;17570;0.000;0.000;2023-04-01T10:52:46;95480.86;;;25.08;23.78
30856;BME280;17570;0.000;0.000;2023-04-01T11:25:18;95406.33;;;25.79;21.33
30856;BME280;17570;0.000;0.000;2023-04-01T11:30:44;95394.92;;;25.84;20.77
30856;BME280;17570;0.000;0.000;2023-04-01T11:35:48;95376.34;;;25.89;20.02
30856;BME280;17570;0.000;0.000;2023-04-01T11:44:11;95365.89;;;25.77;20.97
30856;BME280;17570;0.000;0.000;2023-04-01T11:52:25;95363.09;;;25.99;20.29
30856;BME280;17570;0.000;0.000;2023-04-01T11:57:46;95354.13;;;26.20;19.71
30856;BME280;17570;0.000;0.000;2023-04-01T12:05:22;95341.94;;;26.30;19.23
30856;BME280;17570;0.000;0.000;2023-04-01T12:08:07;95331.86;;;26.37;19.30
30856;BME280;17570;0.000;0.000;2023-04-01T12:10:35;95337.99;;;26.42;19.49
30856;BME280;17570;0.000;0.000;2023-04-01T12:13:59;95330.25;;;26.31;19.50
30856;BME280;17570;0.000;0.000;2023-04-01T12:19:26;95332.12;;;26.30;19.26
30856;BME280;17570;0.000;0.000;2023-04-01T12:21:57;95335.03;;;26.34;19.56
30856;BME280;17570;0.000;0.000;2023-04-01T12:27:10;95326.25;;;26.33;19.46
30856;BME280;17570;0.000;0.000;2023-04-01T12:34:57;95327.52;;;26.15;19.97
30856;BME280;17570;0.000;0.000;2023-04-01T12:45:35;95331.02;;;25.74;22.03
30856;BME280;17570;0.000;0.000;2023-04-01T12:48:02;95332.64;;;25.75;23.61
30856;BME280;17570;0.000;0.000;2023-04-01T12:50:44;95339.70;;;25.59;24.71
30856;BME280;17570;0.000;0.000;2023-04-01T12:55:38;95343.00;;;25.34;26.15
30856;BME280;17570;0.000;0.000;2023-04-01T13:14:15;95406.45;;;24.76;29.41
30856;BME280;17570;0.000;0.000;2023-04-01T13:16:42;95417.08;;;24.54;29.83
30856;BME280;17570;0.000;0.000;2023-04-01T13:19:28;95433.42;;;24.68;29.62
30856;BME280;17570;0.000;0.000;2023-04-01T13:21:58;95454.97;;;24.72;29.53
30856;BME280;17570;0.000;0.000;2023-04-01T13:24:31;95488.03;;;24.64;30.05
30856;BME280;17570;0.000;0.000;2023-04-01T13:27:02;95496.25;;;24.62;29.79
30856;BME280;17570;0.000;0.000;2023-04-01T13:29:29;95510.73;;;24.55;29.83
30856;BME280;17570;0.000;0.000;2023-04-01T13:32:18;95527.07;;;24.47;29.96
30856;BME280;17570;0.000;0.000;2023-04-01T13:34:48;95552.73;;;24.41;30.10
30856;BME280;17570;0.000;0.000;2023-04-01T13:40:02;95622.38;;;24.19;32.91
30856;BME280;17570;0.000;0.000;2023-04-01T13:44:59;95676.73;;;23.88;35.58
30856;BME280;17570;0.000;0.000;2023-04-01T13:57:58;95719.16;;;23.13;37.93
30856;BME280;17570;0.000;0.000;2023-04-01T14:08:36;95707.80;;;22.47;39.45
30856;BME280;17570;0.000;0.000;2023-04-01T14:21:49;95685.13;;;22.28;40.84
30856;BME280;17570;0.000;0.000;2023-04-01T14:43:10;95619.63;;;21.88;43.19
30856;BME280;17570;0.000;0.000;2023-04-01T14:48:25;95571.16;;;21.82;43.48
30856;BME280;17570;0.000;0.000;2023-04-01T14:50:53;95555.06;;;21.84;44.19
30856;BME280;17570;0.000;0.000;2023-04-01T14:53:28;95539.22;;;21.96;43.21
30856;BME280;17570;0.000;0.000;2023-04-01T14:55:56;95537.28;;;22.03;42.93
30856;BME280;17570;0.000;0.000;2023-04-01T14:58:39;95535.44;;;22.03;43.64
30856;BME280;17570;0.000;0.000;2023-04-01T15:09:04;95481.44;;;21.99;43.03
30856;BME280;17570;0.000;0.000;2023-04-01T15:11:51;95456.97;;;22.04;43.58
30856;BME280;17570;0.000;0.000;2023-04-01T15:16:41;95428.25;;;22.07;42.83
30856;BME280;17570;0.000;0.000;2023-04-01T15:21:50;95429.05;;;22.08;42.91
30856;BME280;17570;0.000;0.000;2023-04-01T15:24:25;95418.94;;;22.05;43.60
30856;BME280;17570;0.000;0.000;2023-04-01T15:32:06;95430.20;;;22.00;43.67
30856;BME280;17570;0.000;0.000;2023-04-01T15:34:36;95436.42;;;21.94;43.56
30856;BME280;17570;0.000;0.000;2023-04-01T15:40:00;95439.30;;;21.93;43.26
30856;BME280;17570;0.000;0.000;2023-04-01T15:42:25;95437.34;;;21.88;43.07
30856;BME280;17570;0.000;0.000;2023-04-01T15:50:20;95439.41;;;21.74;43.36
30856;BME280;17570;0.000;0.000;2023-04-01T15:53:05;95452.27;;;21.71;44.20
30856;BME280;17570;0.000;0.000;2023-04-01T16:00:22;95467.63;;;21.50;43.90
30856;BME280;17570;0.000;0.000;2023-04-01T16:21:02;95512.59;;;21.13;44.86
30856;BME280;17570;0.000;0.000;2023-04-01T16:23:42;95516.41;;;21.18;45.05
30856;BME280;17570;0.000;0.000;2023-04-01T16:26:06;95514.20;;;21.14;44.89
30856;BME280;17570;0.000;0.000;2023-04-01T16:28:36;95514.88;;;21.10;44.96
30856;BME280;17570;0.000;0.000;2023-04-01T16:36:32;95527.13;;;21.04;45.37
30856;BME280;17570;0.000;0.000;2023-04-01T16:39:07;95520.98;;;20.92;45.46
30856;BME280;17570;0.000;0.000;2023-04-01T16:44:09;95523.25;;;20.88;45.25
30856;BME280;17570;0.000;0.000;2023-04-01T16:46:30;95515.34;;;20.88;45.94
30856;BME280;17570;0.000;0.000;2023-04-01T16:51:37;95513.03;;;20.80;44.91
30856;BME280;17570;0.000;0.000;2023-04-01T16:54:17;95519.77;;;20.76;44.96
30856;BME280;17570;0.000;0.000;2023-04-01T17:02:02;95545.25;;;20.64;45.58
30856;BME280;17570;0.000;0.000;2023-04-01T17:09:32;95567.80;;;20.60;45.38
30856;BME280;17570;0.000;0.000;2023-04-01T17:14:36;95580.64;;;20.56;45.14
30856;BME280;17570;0.000;0.000;2023-04-01T17:17:48;95590.00;;;20.52;45.02
30856;BME280;17570;0.000;0.000;2023-04-01T17:19:49;95594.09;;;20.48;44.70
30856;BME280;17570;0.000;0.000;2023-04-01T17:25:08;95616.30;;;20.34;44.99
30856;BME280;17570;0.000;0.000;2023-04-01T17:30:24;95729.23;;;20.30;43.64
30856;BME280;17570;0.000;0.000;2023-04-01T17:32:59;95750.37;;;20.24;44.41
30856;BME280;17570;0.000;0.000;2023-04-01T17:35:27;95770.20;;;20.26;42.80
30856;BME280;17570;0.000;0.000;2023-04-01T17:38:12;95776.27;;;20.27;43.31
30856;BME280;17570;0.000;0.000;2023-04-01T17:40:57;95780.96;;;20.25;42.68
30856;BME280;17570;0.000;0.000;2023-04-01T17:43:27;95784.06;;;20.15;41.82
30856;BME280;17570;0.000;0.000;2023-04-01T17:46:02;95794.61;;;20.08;41.31
30856;BME280;17570;0.000;0.000;2023-04-01T17:48:36;95781.03;;;20.11;41.95
30856;BME280;17570;0.000;0.000;2023-04-01T17:53:45;95770.31;;;20.06;42.27
30856;BME280;17570;0.000;0.000;2023-04-01T17:56:10;95767.06;;;20.04;42.42
30856;BME280;17570;0.000;0.000;2023-04-01T17:58:50;95766.66;;;20.07;42.43
30856;BME280;17570;0.000;0.000;2023-04-01T18:01:26;95769.70;;;20.04;42.29
30856;BME280;17570;0.000;0.000;2023-04-01T18:09:03;95762.48;;;19.93;42.87
30856;BME280;17570;0.000;0.000;2023-04-01T18:21:53;95751.78;;;19.81;43.22
30856;BME280;17570;0.000;0.000;2023-04-01T18:24:29;95750.40;;;19.72;43.59
30856;BME280;17570;0.000;0.000;2023-04-01T18:27:04;95749.81;;;19.70;43.70
30856;BME280;17570;0.000;0.000;2023-04-01T18:29:34;95750.40;;;19.72;44.05
30856;BME280;17570;0.000;0.000;2023-04-01T18:39:52;95747.22;;;19.64;43.41
30856;BME280;17570;0.000;0.000;2023-04-01T18:45:08;95744.99;;;19.60;43.24
30856;BME280;17570;0.000;0.000;2023-04-01T18:47:54;95739.52;;;19.49;43.48
30856;BME280;17570;0.000;0.000;2023-04-01T18:50:32;95742.77;;;19.51;43.28
30856;BME280;17570;0.000;0.000;2023-04-01T18:53:09;95751.50;;;19.45;43.46
30856;BME280;17570;0.000;0.000;2023-04-01T18:55:39;95760.02;;;19.33;43.78
30856;BME280;17570;0.000;0.000;2023-04-01T18:58:12;95784.11;;;19.37;43.48
30856;BME280;17570;0.000;0.000;2023-04-01T19:00:46;95783.92;;;19.32;43.54
30856;BME280;17570;0.000;0.000;2023-04-01T19:03:23;95785.53;;;19.33;43.45
30856;BME280;17570;0.000;0.000;2023-04-01T19:05:50;95792.42;;;19.21;43.46
30856;BME280;17570;0.000;0.000;2023-04-01T19:08:34;95792.04;;;19.17;43.64
30856;BME280;17570;0.000;0.000;2023-04-01T19:11:15;95788.80;;;19.22;43.47
30856;BME280;17570;0.000;0.000;2023-04-01T19:13:52;95802.14;;;19.07;43.54
30856;BME280;17570;0.000;0.000;2023-04-01T19:16:23;95807.62;;;19.05;43.60
30856;BME280;17570;0.000;0.000;2023-04-01T19:21:33;95816.52;;;19.04;43.97
30856;BME280;17570;0.000;0.000;2023-04-01T19:29:12;95830.48;;;19.05;43.66
30856;BME280;17570;0.000;0.000;2023-04-01T19:31:47;95828.88;;;19.04;43.45
30856;BME280;17570;0.000;0.000;2023-04-01T19:34:25;95825.83;;;19.00;43.44
30856;BME280;17570;0.000;0.000;2023-04-01T19:36:56;95826.23;;;18.91;43.61
30856;BME280;17570;0.000;0.000;2023-04-01T19:39:31;95829.26;;;18.88;43.91
30856;BME280;17570;0.000;0.000;2023-04-01T19:42:09;95830.48;;;18.85;43.61
30856;BME280;17570;0.000;0.000;2023-04-01T19:44:48;95824.61;;;18.83;43.97
30856;BME280;17570;0.000;0.000;2023-04-01T20:00:31;95832.91;;;18.80;44.07
30856;BME280;17570;0.000;0.000;2023-04-01T20:08:03;95838.95;;;18.74;43.93
30856;BME280;17570;0.000;0.000;2023-04-01T20:10:32;95837.75;;;18.83;43.94
30856;BME280;17570;0.000;0.000;2023-04-01T20:15:35;95849.49;;;18.80;43.76
30856;BME280;17570;0.000;0.000;2023-04-01T20:18:11;95849.28;;;18.82;43.46
30856;BME280;17570;0.000;0.000;2023-04-01T20:20:32;95844.63;;;18.77;43.74
30856;BME280;17570;0.000;0.000;2023-04-01T20:23:12;95853.74;;;18.75;43.57
30856;BME280;17570;0.000;0.000;2023-04-01T20:25:40;95853.31;;;18.78;43.41
30856;BME280;17570;0.000;0.000;2023-04-01T20:28:12;95851.29;;;18.73;43.65
30856;BME280;17570;0.000;0.000;2023-04-01T20:30:49;95849.89;;;18.71;43.85
30856;BME280;17570;0.000;0.000;2023-04-01T20:41:03;95845.80;;;18.61;43.90
30856;BME280;17570;0.000;0.000;2023-04-01T20:46:20;95853.05;;;18.59;44.04
30856;BME280;17570;0.000;0.000;2023-04-01T20:51:35;95858.52;;;18.51;44.00
30856;BME280;17570;0.000;0.000;2023-04-01T20:59:28;95865.14;;;18.41;44.41
30856;BME280;17570;0.000;0.000;2023-04-01T21:01:58;95860.69;;;18.41;44.09
30856;BME280;17570;0.000;0.000;2023-04-01T21:14:32;95875.22;;;18.30;43.71
30856;BME280;17570;0.000;0.000;2023-04-01T21:22:17;95873.61;;;18.29;44.09
30856;BME280;17570;0.000;0.000;2023-04-01T21:37:54;95893.33;;;18.12;44.16
30856;BME280;17570;0.000;0.000;2023-04-01T21:43:09;95890.27;;;18.08;44.24